Sales, Brazil
Current Conditions -  °F | °C
As of 1:00 PM on Friday 24 Oct 2014 (Local Time) from SBSR Reporting Station
Few Clouds Few Clouds  
Wind Chill: 86°   Ceiling: Unl
Heat Index: 86°   Visibility: 6mi
Dew Point: 61°   Wind: 2mph
Humidity: 43%   Direction: 60°ENE
Pressure: 30.03"   Gusts: NA
Location:  21.34°S, 49.49°W
Report Text: SBSR 241500Z 06002KT 9999 FEW040 30/16 Q1017
Loading
Personal Weather Stations






























Interactive Weather Map
Tropical Storm Tracking
New forecast layout! Learn more

10-Day Weather Forecast

Advertisements
Track Severe Weather on mobile